createdAt,value
2019-02-27T00:00:51.330Z,3.62
2019-02-27T00:01:51.276Z,3.54
2019-02-27T00:02:53.804Z,3.60
2019-02-27T00:03:50.989Z,3.52
2019-02-27T00:04:50.967Z,3.42
2019-02-27T00:05:50.673Z,3.49
2019-02-27T00:06:50.588Z,3.50
2019-02-27T00:07:51.884Z,3.44
2019-02-27T00:08:50.463Z,3.52
2019-02-27T00:09:50.283Z,3.42
2019-02-27T00:10:50.262Z,3.52
2019-02-27T00:11:50.058Z,3.47
2019-02-27T00:12:52.433Z,3.52
2019-02-27T00:13:49.826Z,3.46
2019-02-27T00:14:49.807Z,3.58
2019-02-27T00:15:49.517Z,3.44
2019-02-27T00:16:49.530Z,3.58
2019-02-27T00:17:51.361Z,3.54
2019-02-27T00:18:49.243Z,3.52
2019-02-27T00:19:49.254Z,3.47
2019-02-27T00:20:48.710Z,3.49
2019-02-27T00:21:48.785Z,3.54
2019-02-27T00:22:50.763Z,3.52
2019-02-27T00:23:48.610Z,3.60
2019-02-27T00:24:48.228Z,3.53
2019-02-27T00:25:48.200Z,3.68
2019-02-27T00:26:47.975Z,3.58
2019-02-27T00:27:49.253Z,3.54
2019-02-27T00:28:47.689Z,3.57
2019-02-27T00:29:47.732Z,3.61
2019-02-27T00:30:47.463Z,3.58
2019-02-27T00:31:47.440Z,3.52
2019-02-27T00:32:50.980Z,3.50
2019-02-27T00:33:47.079Z,3.50
2019-02-27T00:34:46.924Z,3.43
2019-02-27T00:35:46.774Z,3.47
2019-02-27T00:36:46.627Z,3.43
2019-02-27T00:37:46.479Z,3.52
2019-02-27T00:38:46.518Z,3.49
2019-02-27T00:39:46.288Z,3.43
2019-02-27T00:40:46.086Z,3.50
2019-02-27T00:41:46.655Z,3.47
2019-02-27T00:42:45.820Z,3.40
2019-02-27T00:43:45.881Z,3.40
2019-02-27T00:44:45.725Z,3.44
2019-02-27T00:45:45.425Z,3.47
2019-02-27T00:46:46.441Z,3.40
2019-02-27T00:47:45.624Z,3.42
2019-02-27T00:48:45.036Z,3.50
2019-02-27T00:49:45.023Z,3.39
2019-02-27T00:50:44.773Z,3.42
2019-02-27T00:51:45.422Z,3.50
2019-02-27T00:52:44.522Z,3.49
2019-02-27T00:53:44.926Z,3.49
2019-02-27T00:54:44.419Z,3.40
2019-02-27T00:55:44.117Z,3.53
2019-02-27T00:56:45.031Z,3.57
2019-02-27T00:57:43.862Z,3.52
2019-02-27T00:58:43.720Z,3.60
2019-02-27T00:59:43.593Z,3.61
2019-02-27T01:00:43.463Z,3.67
2019-02-27T01:01:47.263Z,3.54
2019-02-27T01:02:43.196Z,3.58
2019-02-27T01:03:43.064Z,3.61
2019-02-27T01:04:42.931Z,3.58
2019-02-27T01:05:42.800Z,3.53
2019-02-27T01:06:45.046Z,3.53
2019-02-27T01:07:42.540Z,3.61
2019-02-27T01:08:42.411Z,3.58
2019-02-27T01:09:42.278Z,3.58
2019-02-27T01:10:42.813Z,3.65
2019-02-27T01:11:42.015Z,3.67
2019-02-27T01:12:41.884Z,3.53
2019-02-27T01:13:41.758Z,3.57
2019-02-27T01:14:41.621Z,3.58
2019-02-27T01:15:41.833Z,3.58
2019-02-27T01:16:41.358Z,3.50
2019-02-27T01:17:41.228Z,3.50
2019-02-27T01:18:41.093Z,3.52
2019-02-27T01:19:42.685Z,3.44
2019-02-27T01:20:45.674Z,3.53
2019-02-27T01:21:40.701Z,3.49
2019-02-27T01:22:40.574Z,3.53
2019-02-27T01:23:43.856Z,3.50
2019-02-27T01:24:40.309Z,3.54
2019-02-27T01:25:40.176Z,3.43
2019-02-27T01:26:40.044Z,3.50
2019-02-27T01:27:39.916Z,3.53
2019-02-27T01:28:44.638Z,3.47
2019-02-27T01:29:39.651Z,3.57
2019-02-27T01:30:39.520Z,3.46
2019-02-27T01:31:39.389Z,3.53
2019-02-27T01:32:39.260Z,3.50
2019-02-27T01:33:39.128Z,3.50
2019-02-27T01:34:38.993Z,3.50
2019-02-27T01:35:38.864Z,3.61
2019-02-27T01:36:38.735Z,3.53
2019-02-27T01:37:38.600Z,3.65
2019-02-27T01:38:38.596Z,3.64
2019-02-27T01:39:38.338Z,3.54
2019-02-27T01:40:38.238Z,3.53
2019-02-27T01:41:38.074Z,3.58
2019-02-27T01:42:37.947Z,3.75
2019-02-27T01:43:40.054Z,3.61
2019-02-27T01:44:37.683Z,3.58
2019-02-27T01:45:37.556Z,3.65
2019-02-27T01:46:37.424Z,3.70
2019-02-27T01:47:37.289Z,3.72
2019-02-27T01:48:42.805Z,3.76
2019-02-27T01:49:37.028Z,3.89
2019-02-27T01:50:36.894Z,3.85
2019-02-27T01:51:36.764Z,3.72
2019-02-27T01:52:36.634Z,3.82
2019-02-27T01:53:37.922Z,3.70
2019-02-27T01:54:36.374Z,3.68
2019-02-27T01:55:36.243Z,3.68
2019-02-27T01:56:36.112Z,3.60
2019-02-27T01:57:36.830Z,3.54
2019-02-27T01:58:35.849Z,3.53
2019-02-27T01:59:35.715Z,3.47
2019-02-27T02:00:35.586Z,3.62
2019-02-27T02:01:35.451Z,3.62
2019-02-27T02:02:37.572Z,3.64
2019-02-27T02:03:35.190Z,3.67
2019-02-27T02:04:35.060Z,3.52
2019-02-27T02:05:34.929Z,3.64
2019-02-27T02:06:34.795Z,3.60
2019-02-27T02:07:34.668Z,3.70
2019-02-27T02:08:34.536Z,3.65
2019-02-27T02:09:34.402Z,3.58
2019-02-27T02:10:34.271Z,3.52
2019-02-27T02:11:35.035Z,3.53
2019-02-27T02:12:34.012Z,3.53
2019-02-27T02:13:33.879Z,3.50
2019-02-27T02:14:33.748Z,3.46
2019-02-27T02:15:33.617Z,3.53
2019-02-27T02:16:34.316Z,3.43
2019-02-27T02:17:33.354Z,3.34
2019-02-27T02:18:33.225Z,3.36
2019-02-27T02:19:34.072Z,3.40
2019-02-27T02:20:32.965Z,3.40
2019-02-27T02:21:34.321Z,3.42
2019-02-27T02:22:32.699Z,3.36
2019-02-27T02:23:32.572Z,3.33
2019-02-27T02:24:32.438Z,3.30
2019-02-27T02:25:32.305Z,3.36
2019-02-27T02:26:35.044Z,3.34
2019-02-27T02:27:32.044Z,3.60
2019-02-27T02:28:31.912Z,3.64
2019-02-27T02:29:31.783Z,3.57
2019-02-27T02:30:31.653Z,3.50
2019-02-27T02:31:31.523Z,3.47
2019-02-27T02:32:31.388Z,3.46
2019-02-27T02:33:31.257Z,3.52
2019-02-27T02:34:31.125Z,3.52
2019-02-27T02:35:30.993Z,3.46
2019-02-27T02:36:30.861Z,3.34
2019-02-27T02:37:33.702Z,3.36
2019-02-27T02:38:30.602Z,3.33
2019-02-27T02:39:30.477Z,3.46
2019-02-27T02:40:31.139Z,3.36
2019-02-27T02:41:32.074Z,3.47
2019-02-27T02:42:30.074Z,3.47
2019-02-27T02:43:29.944Z,3.33
2019-02-27T02:44:29.861Z,3.47
2019-02-27T02:45:32.802Z,3.36
2019-02-27T02:46:29.549Z,3.36
2019-02-27T02:47:29.420Z,3.34
2019-02-27T02:48:31.066Z,3.40
2019-02-27T02:49:29.159Z,3.44
2019-02-27T02:50:29.042Z,3.34
2019-02-27T02:51:29.974Z,3.24
2019-02-27T02:52:28.761Z,3.24
2019-02-27T02:53:28.631Z,3.10
2019-02-27T02:54:28.500Z,3.21
2019-02-27T02:55:28.370Z,3.30
2019-02-27T02:56:28.236Z,3.34
2019-02-27T02:57:28.106Z,3.39
2019-02-27T02:58:27.974Z,3.47
2019-02-27T02:59:27.844Z,3.33
2019-02-27T03:00:27.714Z,3.20
2019-02-27T03:01:27.581Z,3.24
2019-02-27T03:02:29.681Z,3.24
2019-02-27T03:03:27.318Z,3.23
2019-02-27T03:04:27.186Z,3.12
2019-02-27T03:05:27.053Z,3.24
2019-02-27T03:06:26.921Z,3.23
2019-02-27T03:07:26.791Z,3.30
2019-02-27T03:08:26.659Z,3.23
2019-02-27T03:09:30.387Z,3.39
2019-02-27T03:10:26.402Z,3.34
2019-02-27T03:11:26.265Z,3.43
2019-02-27T03:12:29.801Z,3.44
2019-02-27T03:13:26.011Z,3.36
2019-02-27T03:14:25.872Z,3.39
2019-02-27T03:15:28.877Z,3.33
2019-02-27T03:16:25.611Z,3.25
2019-02-27T03:17:26.086Z,3.18
2019-02-27T03:18:26.201Z,3.16
2019-02-27T03:19:25.217Z,3.18
2019-02-27T03:20:25.087Z,3.23
2019-02-27T03:21:28.758Z,3.25
2019-02-27T03:22:24.822Z,3.27
2019-02-27T03:23:24.696Z,3.27
2019-02-27T03:24:27.937Z,3.23
2019-02-27T03:25:24.427Z,3.25
2019-02-27T03:26:24.295Z,3.27
2019-02-27T03:27:29.594Z,3.16
2019-02-27T03:28:24.032Z,3.24
2019-02-27T03:29:23.904Z,3.21
2019-02-27T03:30:34.127Z,3.21
2019-02-27T03:31:23.649Z,3.16
2019-02-27T03:32:23.512Z,3.23
2019-02-27T03:33:26.715Z,3.28
2019-02-27T03:34:23.254Z,3.27
2019-02-27T03:35:27.499Z,3.33
2019-02-27T03:36:22.983Z,3.21
2019-02-27T03:37:22.854Z,3.27
2019-02-27T03:38:24.111Z,3.30
2019-02-27T03:39:22.588Z,3.30
2019-02-27T03:40:22.455Z,3.36
2019-02-27T03:41:23.594Z,3.24
2019-02-27T03:42:22.195Z,3.24
2019-02-27T03:43:22.071Z,3.16
2019-02-27T03:44:21.935Z,3.15
2019-02-27T03:45:21.802Z,3.18
2019-02-27T03:46:22.116Z,3.13
2019-02-27T03:47:21.537Z,3.06
2019-02-27T03:48:21.406Z,3.10
2019-02-27T03:49:21.274Z,3.12
2019-02-27T03:50:21.142Z,3.12
2019-02-27T03:51:24.380Z,3.27
2019-02-27T03:52:20.883Z,3.28
2019-02-27T03:53:20.745Z,3.36
2019-02-27T03:54:21.298Z,3.44
2019-02-27T03:55:20.486Z,3.43
2019-02-27T03:56:20.355Z,3.44
2019-02-27T03:57:20.533Z,3.42
2019-02-27T03:58:20.090Z,3.46
2019-02-27T03:59:19.963Z,3.40
2019-02-27T04:00:19.828Z,3.44
2019-02-27T04:01:19.700Z,3.52
2019-02-27T04:02:19.565Z,3.62
2019-02-27T04:03:19.434Z,3.54
2019-02-27T04:04:19.306Z,3.65
2019-02-27T04:05:19.171Z,3.62
2019-02-27T04:06:21.190Z,3.60
2019-02-27T04:07:18.911Z,3.60
2019-02-27T04:08:18.792Z,3.47
2019-02-27T04:09:20.081Z,3.62
2019-02-27T04:10:18.516Z,3.53
2019-02-27T04:11:18.382Z,3.50
2019-02-27T04:12:18.254Z,3.33
2019-02-27T04:13:18.128Z,3.34
2019-02-27T04:14:17.989Z,3.28
2019-02-27T04:15:18.943Z,3.34
2019-02-27T04:16:17.725Z,3.40
2019-02-27T04:17:17.594Z,3.46
2019-02-27T04:18:17.469Z,3.50
2019-02-27T04:19:17.333Z,3.28
2019-02-27T04:20:17.201Z,3.21
2019-02-27T04:21:17.070Z,3.42
2019-02-27T04:22:16.942Z,3.49
2019-02-27T04:23:16.809Z,3.71
2019-02-27T04:24:22.211Z,3.64
2019-02-27T04:25:16.548Z,3.62
2019-02-27T04:26:16.414Z,3.75
2019-02-27T04:27:20.255Z,3.86
2019-02-27T04:28:16.149Z,3.80
2019-02-27T04:29:16.020Z,3.72
2019-02-27T04:30:15.889Z,3.54
2019-02-27T04:31:15.759Z,3.49
2019-02-27T04:32:15.625Z,3.43
2019-02-27T04:33:15.492Z,3.42
2019-02-27T04:34:15.361Z,3.39
2019-02-27T04:35:15.228Z,3.43
2019-02-27T04:36:15.098Z,3.43
2019-02-27T04:37:14.967Z,3.40
2019-02-27T04:38:14.835Z,3.47
2019-02-27T04:39:14.742Z,3.43
2019-02-27T04:40:14.572Z,3.36
2019-02-27T04:41:17.837Z,3.42
2019-02-27T04:42:14.311Z,3.47
2019-02-27T04:43:14.177Z,3.52
2019-02-27T04:44:14.111Z,3.54
2019-02-27T04:45:13.914Z,3.58
2019-02-27T04:46:13.788Z,3.64
2019-02-27T04:47:13.656Z,3.52
2019-02-27T04:48:13.522Z,3.54
2019-02-27T04:49:13.388Z,3.52
2019-02-27T04:50:13.263Z,3.62
2019-02-27T04:51:16.889Z,3.62
2019-02-27T04:52:12.996Z,3.85
2019-02-27T04:53:12.865Z,3.80
2019-02-27T04:54:12.733Z,3.75
2019-02-27T04:55:13.095Z,3.71
2019-02-27T04:56:12.471Z,3.70
2019-02-27T04:57:12.338Z,3.79
2019-02-27T04:58:12.208Z,3.71
2019-02-27T04:59:12.075Z,3.72
2019-02-27T05:00:11.947Z,3.71
2019-02-27T05:01:11.814Z,3.60
2019-02-27T05:02:12.097Z,3.70
2019-02-27T05:03:11.550Z,3.68
2019-02-27T05:04:11.419Z,3.61
2019-02-27T05:05:11.289Z,3.61
2019-02-27T05:06:12.073Z,3.62
2019-02-27T05:07:12.597Z,3.70
2019-02-27T05:08:10.896Z,3.60
2019-02-27T05:09:12.660Z,3.67
2019-02-27T05:10:10.635Z,3.64
2019-02-27T05:11:14.189Z,3.54
2019-02-27T05:12:12.103Z,3.47
2019-02-27T05:13:10.240Z,3.49
2019-02-27T05:14:11.108Z,3.40
2019-02-27T05:15:11.609Z,3.36
2019-02-27T05:16:13.891Z,3.53
2019-02-27T05:17:09.713Z,3.68
2019-02-27T05:18:09.583Z,3.72
2019-02-27T05:19:11.101Z,3.62
2019-02-27T05:20:12.517Z,3.72
2019-02-27T05:21:09.187Z,3.49
2019-02-27T05:22:09.058Z,3.53
2019-02-27T05:23:08.925Z,3.50
2019-02-27T05:24:08.796Z,3.50
2019-02-27T05:25:08.670Z,3.50
2019-02-27T05:26:08.534Z,3.61
2019-02-27T05:27:08.402Z,3.60
2019-02-27T05:28:08.271Z,3.68
2019-02-27T05:29:08.141Z,3.76
2019-02-27T05:30:12.001Z,3.75
2019-02-27T05:31:07.879Z,3.70
2019-02-27T05:32:07.746Z,3.62
2019-02-27T05:33:07.613Z,3.64
2019-02-27T05:34:12.311Z,3.90
2019-02-27T05:35:07.358Z,3.92
2019-02-27T05:36:07.225Z,3.89
2019-02-27T05:37:07.089Z,3.89
2019-02-27T05:38:06.956Z,3.90
2019-02-27T05:39:06.825Z,3.79
2019-02-27T05:40:06.699Z,3.90
2019-02-27T05:41:06.565Z,3.90
2019-02-27T05:42:07.005Z,3.76
2019-02-27T05:43:06.301Z,3.88
2019-02-27T05:44:06.169Z,3.92
2019-02-27T05:45:06.039Z,3.75
2019-02-27T05:46:05.908Z,3.80
2019-02-27T05:47:05.774Z,3.70
2019-02-27T05:48:05.645Z,3.62
2019-02-27T05:49:05.517Z,3.61
2019-02-27T05:50:05.381Z,3.43
2019-02-27T05:51:07.647Z,3.52
2019-02-27T05:52:05.124Z,3.50
2019-02-27T05:53:04.987Z,3.44
2019-02-27T05:54:06.604Z,3.39
2019-02-27T05:55:06.456Z,3.27
2019-02-27T05:56:04.596Z,3.30
2019-02-27T05:57:04.464Z,3.34
2019-02-27T05:58:04.333Z,3.31
2019-02-27T05:59:04.205Z,3.33
2019-02-27T06:00:04.068Z,3.30
2019-02-27T06:01:04.994Z,3.25
2019-02-27T06:02:03.806Z,3.28
2019-02-27T06:03:03.676Z,3.31
2019-02-27T06:04:03.546Z,3.25
2019-02-27T06:05:03.467Z,3.13
2019-02-27T06:06:03.282Z,3.23
2019-02-27T06:07:03.153Z,3.23
2019-02-27T06:08:03.029Z,3.33
2019-02-27T06:09:02.878Z,3.30
2019-02-27T06:10:02.837Z,3.42
2019-02-27T06:11:02.618Z,3.43
2019-02-27T06:12:06.667Z,3.52
2019-02-27T06:13:02.352Z,3.44
2019-02-27T06:14:02.228Z,3.46
2019-02-27T06:15:02.090Z,3.42
2019-02-27T06:16:03.848Z,3.42
2019-02-27T06:17:01.826Z,3.36
2019-02-27T06:18:01.700Z,3.31
2019-02-27T06:19:01.570Z,3.33
2019-02-27T06:20:01.434Z,3.46
2019-02-27T06:21:01.302Z,3.53
2019-02-27T06:22:01.171Z,3.58
2019-02-27T06:23:04.118Z,3.54
2019-02-27T06:24:00.902Z,3.58
2019-02-27T06:25:00.757Z,3.65
2019-02-27T06:26:00.623Z,3.67
2019-02-27T06:27:00.494Z,3.75
2019-02-27T06:28:00.367Z,3.71
2019-02-27T06:29:00.232Z,3.75
2019-02-27T06:30:00.161Z,3.68
2019-02-27T06:31:02.558Z,3.72
2019-02-27T06:31:59.841Z,3.71
2019-02-27T06:32:59.708Z,3.71
2019-02-27T06:33:59.577Z,3.72
2019-02-27T06:34:59.977Z,3.58
2019-02-27T06:35:59.315Z,3.72
2019-02-27T06:36:59.182Z,3.65
2019-02-27T06:37:59.066Z,3.72
2019-02-27T06:39:00.329Z,3.83
2019-02-27T06:39:58.787Z,3.72
2019-02-27T06:40:59.370Z,3.86
2019-02-27T06:41:58.525Z,3.96
2019-02-27T06:43:02.092Z,3.78
2019-02-27T06:43:58.979Z,3.71
2019-02-27T06:44:58.139Z,3.79
2019-02-27T06:45:58.002Z,3.76
2019-02-27T06:46:57.875Z,3.94
2019-02-27T06:47:57.738Z,3.78
2019-02-27T06:48:57.608Z,3.86
2019-02-27T06:49:57.479Z,3.82
2019-02-27T06:50:58.296Z,3.86
2019-02-27T06:51:57.216Z,3.85
2019-02-27T06:52:57.084Z,3.97
2019-02-27T06:53:56.953Z,3.96
2019-02-27T06:54:56.823Z,3.90
2019-02-27T06:55:56.691Z,4.03
2019-02-27T06:56:56.560Z,4.03
2019-02-27T06:57:56.428Z,4.00
2019-02-27T06:58:56.298Z,4.18
2019-02-27T06:59:57.508Z,4.14
2019-02-27T07:00:56.034Z,4.14
2019-02-27T07:01:55.910Z,4.14
2019-02-27T07:02:56.211Z,4.16
2019-02-27T07:03:55.655Z,4.07
2019-02-27T07:04:55.515Z,4.10
2019-02-27T07:05:55.382Z,4.24
2019-02-27T07:06:55.964Z,4.21
2019-02-27T07:07:55.148Z,4.19
2019-02-27T07:08:55.018Z,4.26
2019-02-27T07:09:54.869Z,4.33
2019-02-27T07:10:57.314Z,4.37
2019-02-27T07:11:54.596Z,4.39
2019-02-27T07:12:55.327Z,4.46
2019-02-27T07:13:54.339Z,4.47
2019-02-27T07:14:54.255Z,4.54
2019-02-27T07:15:55.583Z,4.43
2019-02-27T07:16:56.939Z,4.42
2019-02-27T07:17:53.834Z,4.47
2019-02-27T07:18:53.682Z,4.44
2019-02-27T07:19:53.552Z,4.46
2019-02-27T07:20:55.602Z,4.46
2019-02-27T07:21:53.292Z,4.34
2019-02-27T07:22:53.160Z,4.12
2019-02-27T07:23:57.577Z,4.18
2019-02-27T07:24:52.900Z,4.24
2019-02-27T07:25:52.768Z,4.37
2019-02-27T07:26:52.635Z,4.37
2019-02-27T07:27:52.508Z,4.40
2019-02-27T07:28:52.375Z,4.59
2019-02-27T07:29:52.246Z,4.57
2019-02-27T07:30:52.114Z,4.55
2019-02-27T07:31:52.665Z,4.55
2019-02-27T07:32:51.854Z,4.59
2019-02-27T07:33:51.883Z,4.75
2019-02-27T07:34:51.701Z,4.86
2019-02-27T07:35:51.474Z,5.16
2019-02-27T07:36:51.424Z,5.23
2019-02-27T07:37:51.202Z,5.46
2019-02-27T07:38:51.069Z,5.57
2019-02-27T07:39:50.940Z,5.86
2019-02-27T07:40:50.902Z,6.06
2019-02-27T07:41:50.887Z,6.11
2019-02-27T07:42:50.549Z,6.11
2019-02-27T07:43:50.444Z,6.35
2019-02-27T07:44:50.292Z,6.36
2019-02-27T07:45:50.419Z,6.50
2019-02-27T07:46:50.260Z,6.61
2019-02-27T07:47:49.903Z,6.80
2019-02-27T07:48:49.777Z,7.13
2019-02-27T07:49:49.645Z,7.29
2019-02-27T07:50:49.514Z,7.47
2019-02-27T07:51:49.385Z,7.69
2019-02-27T07:52:49.256Z,7.79
2019-02-27T07:53:51.385Z,7.90
2019-02-27T07:54:49.000Z,7.84
2019-02-27T07:55:48.871Z,8.03
2019-02-27T07:56:48.742Z,8.08
2019-02-27T07:57:48.619Z,8.32
2019-02-27T07:58:48.484Z,8.45
2019-02-27T07:59:48.357Z,8.51
2019-02-27T08:00:49.937Z,8.40
2019-02-27T08:01:48.100Z,8.14
2019-02-27T08:02:47.978Z,7.94
2019-02-27T08:03:47.851Z,7.97
2019-02-27T08:04:47.721Z,8.12
2019-02-27T08:05:47.593Z,8.29
2019-02-27T08:06:47.466Z,8.15
2019-02-27T08:07:49.117Z,7.94
2019-02-27T08:08:47.208Z,7.96
2019-02-27T08:09:47.084Z,8.10
2019-02-27T08:10:46.955Z,8.29
2019-02-27T08:11:47.311Z,8.14
2019-02-27T08:12:46.702Z,8.04
2019-02-27T08:13:46.574Z,8.20
2019-02-27T08:14:47.579Z,8.28
2019-02-27T08:15:46.391Z,8.63
2019-02-27T08:16:46.213Z,8.88
2019-02-27T08:17:46.084Z,8.88
2019-02-27T08:18:45.942Z,8.63
2019-02-27T08:19:46.156Z,8.57
2019-02-27T08:20:45.689Z,8.60
2019-02-27T08:21:45.564Z,8.60
2019-02-27T08:22:45.437Z,8.65
2019-02-27T08:23:45.313Z,8.81
2019-02-27T08:24:45.183Z,8.94
2019-02-27T08:25:45.066Z,9.02
2019-02-27T08:26:44.931Z,8.54
2019-02-27T08:27:44.807Z,8.53
2019-02-27T08:28:44.678Z,8.55
2019-02-27T08:29:44.552Z,8.53
2019-02-27T08:30:44.430Z,8.68
2019-02-27T08:31:44.299Z,9.04
2019-02-27T08:32:44.184Z,9.31
2019-02-27T08:33:44.049Z,9.56
2019-02-27T08:34:43.922Z,9.83
2019-02-27T08:35:43.796Z,10.21
2019-02-27T08:36:44.321Z,10.25
2019-02-27T08:37:43.649Z,10.42
2019-02-27T08:38:43.426Z,10.60
2019-02-27T08:39:43.293Z,10.65
2019-02-27T08:40:43.165Z,10.63
2019-02-27T08:41:43.041Z,10.47
2019-02-27T08:42:42.914Z,10.62
2019-02-27T08:43:42.806Z,10.46
2019-02-27T08:44:42.965Z,10.14
2019-02-27T08:45:42.539Z,10.25
2019-02-27T08:46:42.412Z,10.12
2019-02-27T08:47:43.509Z,10.03
2019-02-27T08:48:42.168Z,10.17
2019-02-27T08:49:42.044Z,10.28
2019-02-27T08:50:41.937Z,10.34
2019-02-27T08:51:42.107Z,10.33
2019-02-27T08:52:41.669Z,10.24
2019-02-27T08:53:41.539Z,10.40
2019-02-27T08:54:41.415Z,10.47
2019-02-27T08:55:41.291Z,10.51
2019-02-27T08:56:41.231Z,10.39
2019-02-27T08:57:41.039Z,10.47
2019-02-27T08:58:40.916Z,10.83
2019-02-27T08:59:40.800Z,11.03
2019-02-27T09:00:40.666Z,11.38
2019-02-27T09:01:40.548Z,11.38
2019-02-27T09:02:40.564Z,11.44
2019-02-27T09:03:40.292Z,11.56
2019-02-27T09:04:42.699Z,11.54
2019-02-27T09:05:40.204Z,11.83
2019-02-27T09:06:39.920Z,11.75
2019-02-27T09:07:39.926Z,11.72
2019-02-27T09:08:43.281Z,11.71
2019-02-27T09:09:39.546Z,11.83
2019-02-27T09:10:39.476Z,12.02
2019-02-27T09:11:40.053Z,12.09
2019-02-27T09:12:40.272Z,12.19
2019-02-27T09:13:39.083Z,12.39
2019-02-27T09:14:38.929Z,12.46
2019-02-27T09:15:38.941Z,12.54
2019-02-27T09:16:38.682Z,12.33
2019-02-27T09:17:38.554Z,12.11
2019-02-27T09:18:38.430Z,12.09
2019-02-27T09:19:38.315Z,12.37
2019-02-27T09:20:38.185Z,12.38
2019-02-27T09:21:38.061Z,12.45
2019-02-27T09:22:37.936Z,12.64
2019-02-27T09:23:37.812Z,12.88
2019-02-27T09:24:37.690Z,13.03
2019-02-27T09:25:37.566Z,12.87
2019-02-27T09:26:37.443Z,12.82
2019-02-27T09:27:37.323Z,12.66
2019-02-27T09:28:37.197Z,12.23
2019-02-27T09:29:37.076Z,12.23
2019-02-27T09:30:36.949Z,12.09
2019-02-27T09:31:37.711Z,12.06
2019-02-27T09:32:36.704Z,12.38
2019-02-27T09:33:39.109Z,12.63
2019-02-27T09:34:36.457Z,12.74
2019-02-27T09:35:38.630Z,12.69
2019-02-27T09:36:36.209Z,12.71
2019-02-27T09:37:36.085Z,12.82
2019-02-27T09:38:35.966Z,12.85
2019-02-27T09:39:35.844Z,13.03
2019-02-27T09:40:38.604Z,13.36
2019-02-27T09:41:35.595Z,13.59
2019-02-27T09:42:35.472Z,13.71
2019-02-27T09:43:35.350Z,13.95
2019-02-27T09:44:36.661Z,14.24
2019-02-27T09:45:35.481Z,14.43
2019-02-27T09:46:34.982Z,14.67
2019-02-27T09:47:34.864Z,14.75
2019-02-27T09:48:34.735Z,14.74
2019-02-27T09:49:34.610Z,14.81
2019-02-27T09:50:34.490Z,15.01
2019-02-27T09:51:34.369Z,15.17
2019-02-27T09:52:34.248Z,15.06
2019-02-27T09:53:36.757Z,14.91
2019-02-27T09:54:34.076Z,15.02
2019-02-27T09:55:33.882Z,15.17
2019-02-27T09:56:33.757Z,15.63
2019-02-27T09:57:35.336Z,15.82
2019-02-27T09:58:33.517Z,15.75
2019-02-27T09:59:33.412Z,16.18
2019-02-27T10:00:33.430Z,16.52
2019-02-27T10:01:35.197Z,16.62
2019-02-27T10:02:33.028Z,16.16
2019-02-27T10:03:32.994Z,15.88
2019-02-27T10:04:32.982Z,15.59
2019-02-27T10:05:36.398Z,15.35
2019-02-27T10:06:32.589Z,15.03
2019-02-27T10:07:32.422Z,14.87
2019-02-27T10:08:32.301Z,14.98
2019-02-27T10:09:34.683Z,14.91
2019-02-27T10:10:32.058Z,15.15
2019-02-27T10:11:31.935Z,15.42
2019-02-27T10:12:31.820Z,15.63
2019-02-27T10:13:31.691Z,15.78
2019-02-27T10:14:31.573Z,15.89
2019-02-27T10:15:31.481Z,16.07
2019-02-27T10:16:34.610Z,15.89
2019-02-27T10:17:31.210Z,15.70
2019-02-27T10:18:31.088Z,15.46
2019-02-27T10:19:30.966Z,15.36
2019-02-27T10:20:30.854Z,14.94
2019-02-27T10:21:30.723Z,14.75
2019-02-27T10:22:30.789Z,14.93
2019-02-27T10:23:31.276Z,14.74
2019-02-27T10:24:32.234Z,14.78
2019-02-27T10:25:30.240Z,14.80
2019-02-27T10:26:30.116Z,15.28
2019-02-27T10:27:29.995Z,15.54
2019-02-27T10:28:29.878Z,15.20
2019-02-27T10:29:29.754Z,15.17
2019-02-27T10:30:29.660Z,15.52
2019-02-27T10:31:29.511Z,15.51
2019-02-27T10:32:29.416Z,15.84
2019-02-27T10:33:30.228Z,15.96
2019-02-27T10:34:29.164Z,16.41
2019-02-27T10:35:29.424Z,16.85
2019-02-27T10:36:28.908Z,17.17
2019-02-27T10:37:28.922Z,17.36
2019-02-27T10:38:28.735Z,17.40
2019-02-27T10:39:28.590Z,17.13
2019-02-27T10:40:28.425Z,17.22
2019-02-27T10:41:28.410Z,16.67
2019-02-27T10:42:28.183Z,16.40
2019-02-27T10:43:28.114Z,16.14
2019-02-27T10:44:27.941Z,16.38
2019-02-27T10:45:27.895Z,16.63
2019-02-27T10:46:27.725Z,16.49
2019-02-27T10:47:27.580Z,16.85
2019-02-27T10:48:27.462Z,17.29
2019-02-27T10:49:27.338Z,17.18
2019-02-27T10:50:27.219Z,17.32
2019-02-27T10:51:27.099Z,17.22
2019-02-27T10:52:26.979Z,17.64
2019-02-27T10:53:27.910Z,17.63
2019-02-27T10:54:26.740Z,17.66
2019-02-27T10:55:27.097Z,17.91
2019-02-27T10:56:26.500Z,18.22
2019-02-27T10:57:31.494Z,18.37
2019-02-27T10:58:26.263Z,18.40
2019-02-27T10:59:26.150Z,18.67
2019-02-27T11:00:26.027Z,18.25
2019-02-27T11:01:25.901Z,17.74
2019-02-27T11:02:26.227Z,17.47
2019-02-27T11:03:27.257Z,17.53
2019-02-27T11:04:25.544Z,17.20
2019-02-27T11:05:25.427Z,16.83
2019-02-27T11:06:33.663Z,16.78
2019-02-27T11:07:25.190Z,16.85
2019-02-27T11:08:28.931Z,16.80
2019-02-27T11:09:24.947Z,17.13
2019-02-27T11:10:24.828Z,17.35
2019-02-27T11:11:24.709Z,17.66
2019-02-27T11:12:26.867Z,17.36
2019-02-27T11:13:24.473Z,17.54
2019-02-27T11:14:24.352Z,17.63
2019-02-27T11:15:24.229Z,17.78
2019-02-27T11:16:24.114Z,18.02
2019-02-27T11:17:23.991Z,17.81
2019-02-27T11:18:23.871Z,17.81
2019-02-27T11:19:23.753Z,18.09
2019-02-27T11:20:24.699Z,18.07
2019-02-27T11:21:23.511Z,18.17
2019-02-27T11:22:23.394Z,18.21
2019-02-27T11:23:23.272Z,18.44
2019-02-27T11:24:24.701Z,18.40
2019-02-27T11:25:23.243Z,18.39
2019-02-27T11:26:22.917Z,18.37
2019-02-27T11:27:22.796Z,18.39
2019-02-27T11:28:22.677Z,18.42
2019-02-27T11:29:23.735Z,18.07
2019-02-27T11:30:22.437Z,18.21
2019-02-27T11:31:22.319Z,18.42
2019-02-27T11:32:23.858Z,18.91
2019-02-27T11:33:25.989Z,18.50
2019-02-27T11:34:21.965Z,18.27
2019-02-27T11:35:22.024Z,18.04
2019-02-27T11:36:21.725Z,18.15
2019-02-27T11:37:21.604Z,18.36
2019-02-27T11:38:24.151Z,18.27
2019-02-27T11:39:21.370Z,18.18
2019-02-27T11:40:21.246Z,18.24
2019-02-27T11:41:21.126Z,18.27
2019-02-27T11:42:21.008Z,18.43
2019-02-27T11:43:20.893Z,18.61
2019-02-27T11:44:20.770Z,18.19
2019-02-27T11:45:23.678Z,18.43
2019-02-27T11:46:20.541Z,18.62
2019-02-27T11:47:20.414Z,18.55
2019-02-27T11:48:22.678Z,18.55
2019-02-27T11:49:20.176Z,18.44
2019-02-27T11:50:20.055Z,18.92
2019-02-27T11:51:20.737Z,19.01
2019-02-27T11:52:19.818Z,19.35
2019-02-27T11:53:19.704Z,19.33
2019-02-27T11:54:19.582Z,19.35
2019-02-27T11:55:19.462Z,19.02
2019-02-27T11:56:20.255Z,18.77
2019-02-27T11:57:19.224Z,19.08
2019-02-27T11:58:19.105Z,18.80
2019-02-27T11:59:18.986Z,18.67
2019-02-27T12:00:21.047Z,18.04
2019-02-27T12:01:21.870Z,18.17
2019-02-27T12:02:18.628Z,18.52
2019-02-27T12:03:18.512Z,18.70
2019-02-27T12:04:19.429Z,18.90
2019-02-27T12:05:18.274Z,18.99
2019-02-27T12:06:18.155Z,18.73
2019-02-27T12:07:18.058Z,18.83
2019-02-27T12:08:17.917Z,19.23
2019-02-27T12:09:17.796Z,19.54
2019-02-27T12:10:17.680Z,19.83
2019-02-27T12:11:17.563Z,19.68
2019-02-27T12:12:17.443Z,19.35
2019-02-27T12:13:17.322Z,18.65
2019-02-27T12:14:18.959Z,18.76
2019-02-27T12:15:17.089Z,18.55
2019-02-27T12:16:18.457Z,19.08
2019-02-27T12:17:16.851Z,19.05
2019-02-27T12:18:16.732Z,18.77
2019-02-27T12:19:16.614Z,18.65
2019-02-27T12:20:18.297Z,18.50
2019-02-27T12:21:16.375Z,18.62
2019-02-27T12:22:16.258Z,18.46
2019-02-27T12:23:16.139Z,18.67
2019-02-27T12:24:16.375Z,18.77
2019-02-27T12:25:15.902Z,19.01
2019-02-27T12:26:15.781Z,19.17
2019-02-27T12:27:25.765Z,19.54
2019-02-27T12:28:18.109Z,19.57
2019-02-27T12:29:15.426Z,19.73
2019-02-27T12:30:16.260Z,19.58
2019-02-27T12:31:15.190Z,19.91
2019-02-27T12:32:15.071Z,19.83
2019-02-27T12:33:14.952Z,19.98
2019-02-27T12:34:14.836Z,19.88
2019-02-27T12:35:14.715Z,19.47
2019-02-27T12:36:16.101Z,19.28
2019-02-27T12:37:26.875Z,19.36
2019-02-27T12:38:14.364Z,19.53
2019-02-27T12:39:15.531Z,19.50
2019-02-27T12:40:14.127Z,19.11
2019-02-27T12:41:14.009Z,19.14
2019-02-27T12:42:13.890Z,19.48
2019-02-27T12:43:17.396Z,19.80
2019-02-27T12:44:13.655Z,19.48
2019-02-27T12:45:13.557Z,19.35
2019-02-27T12:46:13.418Z,19.17
2019-02-27T12:47:13.297Z,18.58
2019-02-27T12:48:13.397Z,18.50
2019-02-27T12:49:13.061Z,18.74
2019-02-27T12:50:12.943Z,18.67
2019-02-27T12:51:12.825Z,18.95
2019-02-27T12:52:12.705Z,18.86
2019-02-27T12:53:12.587Z,18.36
2019-02-27T12:54:12.468Z,18.83
2019-02-27T12:55:12.352Z,19.11
2019-02-27T12:56:12.231Z,18.99
2019-02-27T12:57:12.115Z,18.99
2019-02-27T12:58:13.427Z,19.32
2019-02-27T12:59:12.264Z,19.72
2019-02-27T13:00:11.758Z,19.55
2019-02-27T13:01:16.160Z,19.83
2019-02-27T13:02:11.525Z,19.72
2019-02-27T13:03:11.402Z,20.18
2019-02-27T13:04:16.102Z,20.49
2019-02-27T13:05:11.165Z,20.00
2019-02-27T13:06:11.047Z,19.69
2019-02-27T13:07:11.279Z,19.50
2019-02-27T13:08:11.406Z,19.48